createdAt,value
2023-01-29T00:01:58.805Z,98175.25
2023-01-29T00:04:26.603Z,98173.06
2023-01-29T00:06:53.219Z,98177.78
2023-01-29T00:09:19.829Z,98184.78
2023-01-29T00:11:47.156Z,98177.13
2023-01-29T00:14:13.879Z,98170.28
2023-01-29T00:16:42.830Z,98182.22
2023-01-29T00:19:09.553Z,98160.88
2023-01-29T00:21:36.724Z,98178.63
2023-01-29T00:24:03.441Z,98189.09
2023-01-29T00:26:30.123Z,98179.09
2023-01-29T00:29:00.699Z,98188.72
2023-01-29T00:31:27.460Z,98171.56
2023-01-29T00:33:54.049Z,98190.59
2023-01-29T00:36:22.173Z,98191.41
2023-01-29T00:38:59.745Z,98174.44
2023-01-29T00:41:47.094Z,98195.13
2023-01-29T00:44:32.686Z,98194.28
2023-01-29T00:47:00.107Z,98201.16
2023-01-29T00:49:26.711Z,98200.13
2023-01-29T00:52:11.806Z,98200.47
2023-01-29T00:54:38.412Z,98201.06
2023-01-29T00:57:05.165Z,98208.59
2023-01-29T00:59:31.940Z,98195.78
2023-01-29T01:02:25.365Z,98194.75
2023-01-29T01:04:51.997Z,98204.41
2023-01-29T01:07:18.803Z,98199.16
2023-01-29T01:10:03.883Z,98213.91
2023-01-29T01:12:30.767Z,98203.53
2023-01-29T01:14:57.856Z,98206.59
2023-01-29T01:17:24.585Z,98216.72
2023-01-29T01:19:51.218Z,98215.66
2023-01-29T01:22:17.842Z,98212.28
2023-01-29T01:24:44.447Z,98203.69
2023-01-29T01:27:11.140Z,98206.94
2023-01-29T01:29:37.991Z,98200.56
2023-01-29T01:32:06.054Z,98198.34
2023-01-29T01:34:32.885Z,98205.91
2023-01-29T01:36:59.530Z,98203.81
2023-01-29T01:39:26.092Z,98196.84
2023-01-29T01:41:56.339Z,98190.00
2023-01-29T01:44:59.415Z,98191.50
2023-01-29T01:47:52.304Z,98194.63
2023-01-29T01:50:24.236Z,98189.75
2023-01-29T01:52:55.962Z,98179.75
2023-01-29T01:55:26.609Z,98184.19
2023-01-29T01:57:57.371Z,98184.28
2023-01-29T02:00:26.112Z,98175.13
2023-01-29T02:03:12.350Z,98167.59
2023-01-29T02:05:58.962Z,98151.56
2023-01-29T02:09:01.591Z,98149.00
2023-01-29T02:11:28.174Z,98148.78
2023-01-29T02:13:54.786Z,98150.88
2023-01-29T02:16:22.981Z,98148.06
2023-01-29T02:18:50.541Z,98170.81
2023-01-29T02:21:35.250Z,98164.56
2023-01-29T02:24:23.578Z,98166.63
2023-01-29T02:27:04.839Z,98157.47
2023-01-29T02:29:35.404Z,98164.66
2023-01-29T02:32:17.604Z,98166.75
2023-01-29T02:35:15.541Z,98159.09
2023-01-29T02:38:11.059Z,98147.25
2023-01-29T02:40:54.303Z,98145.59
2023-01-29T02:43:42.505Z,98153.16
2023-01-29T02:46:32.439Z,98159.09
2023-01-29T02:49:22.316Z,98153.41
2023-01-29T02:52:05.242Z,98167.13
2023-01-29T02:54:31.919Z,98164.22
2023-01-29T02:57:08.065Z,98150.84
2023-01-29T02:59:41.670Z,98164.66
2023-01-29T03:02:20.948Z,98171.50
2023-01-29T03:04:55.092Z,98172.09
2023-01-29T03:07:52.131Z,98173.63
2023-01-29T03:10:37.406Z,98174.28
2023-01-29T03:13:12.725Z,98170.69
2023-01-29T03:15:47.016Z,98171.75
2023-01-29T03:18:19.047Z,98161.16
2023-01-29T03:20:53.924Z,98176.63
2023-01-29T03:23:52.753Z,98172.88
2023-01-29T03:26:41.320Z,98186.72
2023-01-29T03:29:28.670Z,98186.25
2023-01-29T03:32:08.607Z,98189.16
2023-01-29T03:34:45.814Z,98188.22
2023-01-29T03:37:19.452Z,98187.97
2023-01-29T03:39:46.156Z,98174.72
2023-01-29T03:42:15.725Z,98195.75
2023-01-29T03:44:51.735Z,98189.81
2023-01-29T03:47:33.296Z,98167.75
2023-01-29T03:50:05.384Z,98176.66
2023-01-29T03:52:39.122Z,98171.91
2023-01-29T03:55:13.296Z,98165.09
2023-01-29T03:58:22.843Z,98163.81
2023-01-29T04:01:14.875Z,98158.94
2023-01-29T04:04:33.614Z,98152.78
2023-01-29T04:07:33.537Z,98160.06
2023-01-29T04:10:12.167Z,98161.59
2023-01-29T04:13:05.592Z,98167.72
2023-01-29T04:15:38.177Z,98160.53
2023-01-29T04:18:05.134Z,98164.84
2023-01-29T04:20:31.707Z,98152.66
2023-01-29T04:22:58.564Z,98147.31
2023-01-29T04:25:30.648Z,98144.06
2023-01-29T04:28:20.796Z,98136.03
2023-01-29T04:30:58.701Z,98115.94
2023-01-29T04:33:31.901Z,98120.00
2023-01-29T04:36:16.506Z,98124.00
2023-01-29T04:39:18.001Z,98108.34
2023-01-29T04:41:55.790Z,98108.19
2023-01-29T04:44:50.039Z,98108.88
2023-01-29T04:47:29.904Z,98109.56
2023-01-29T04:50:09.825Z,98098.16
2023-01-29T04:52:58.846Z,98078.66
2023-01-29T04:55:53.529Z,98096.19
2023-01-29T04:58:20.170Z,98106.94
2023-01-29T05:00:50.432Z,98112.13
2023-01-29T05:03:17.303Z,98108.06
2023-01-29T05:05:49.132Z,98114.22
2023-01-29T05:08:20.136Z,98098.88
2023-01-29T05:10:51.698Z,98110.88
2023-01-29T05:13:44.478Z,98120.25
2023-01-29T05:16:21.732Z,98125.25
2023-01-29T05:18:48.540Z,98123.97
2023-01-29T05:21:15.062Z,98120.59
2023-01-29T05:23:59.598Z,98128.50
2023-01-29T05:26:46.113Z,98137.97
2023-01-29T05:29:12.713Z,98144.56
2023-01-29T05:31:39.377Z,98139.97
2023-01-29T05:34:05.963Z,98146.91
2023-01-29T05:36:32.585Z,98148.56
2023-01-29T05:38:59.177Z,98152.16
2023-01-29T05:41:25.741Z,98143.28
2023-01-29T05:43:52.344Z,98141.00
2023-01-29T05:46:18.932Z,98136.09
2023-01-29T05:48:45.621Z,98139.50
2023-01-29T05:51:12.267Z,98135.81
2023-01-29T05:53:38.845Z,98136.25
2023-01-29T05:56:05.761Z,98134.63
2023-01-29T05:58:34.141Z,98141.34
2023-01-29T06:01:18.186Z,98144.84
2023-01-29T06:03:46.437Z,98138.75
2023-01-29T06:06:13.251Z,98144.56
2023-01-29T06:08:40.255Z,98137.00
2023-01-29T06:11:11.828Z,98145.72
2023-01-29T06:13:39.135Z,98143.22
2023-01-29T06:16:07.162Z,98138.25
2023-01-29T06:18:33.845Z,98133.28
2023-01-29T06:21:02.530Z,98140.97
2023-01-29T06:23:30.000Z,98149.56
2023-01-29T06:26:05.824Z,98136.81
2023-01-29T06:28:32.645Z,98151.47
2023-01-29T06:31:21.004Z,98151.81
2023-01-29T06:33:48.991Z,98152.50
2023-01-29T06:36:15.567Z,98154.13
2023-01-29T06:38:42.152Z,98143.16
2023-01-29T06:41:13.295Z,98145.00
2023-01-29T06:43:40.061Z,98148.09
2023-01-29T06:46:08.443Z,98147.53
2023-01-29T06:48:35.762Z,98131.03
2023-01-29T06:51:07.790Z,98146.13
2023-01-29T06:53:35.662Z,98135.47
2023-01-29T06:56:02.578Z,98144.78
2023-01-29T06:58:29.280Z,98138.97
2023-01-29T07:01:06.744Z,98138.41
2023-01-29T07:03:33.321Z,98143.50
2023-01-29T07:06:00.379Z,98154.09
2023-01-29T07:08:27.688Z,98135.06
2023-01-29T07:11:00.075Z,98141.34
2023-01-29T07:13:26.989Z,98147.72
2023-01-29T07:15:53.565Z,98152.25
2023-01-29T07:18:28.663Z,98128.50
2023-01-29T07:20:56.860Z,98151.88
2023-01-29T07:23:24.154Z,98155.03
2023-01-29T07:25:51.288Z,98159.19
2023-01-29T07:28:18.867Z,98157.78
2023-01-29T07:30:45.457Z,98155.34
2023-01-29T07:33:12.114Z,98150.22
2023-01-29T07:35:43.397Z,98160.47
2023-01-29T07:38:11.207Z,98157.69
2023-01-29T07:40:38.046Z,98158.03
2023-01-29T07:43:07.368Z,98173.16
2023-01-29T07:45:36.337Z,98172.47
2023-01-29T07:48:05.075Z,98169.69
2023-01-29T07:50:35.739Z,98167.03
2023-01-29T07:53:02.408Z,98166.94
2023-01-29T07:55:31.126Z,98169.38
2023-01-29T07:58:03.900Z,98164.25
2023-01-29T08:00:37.510Z,98178.09
2023-01-29T08:03:11.056Z,98182.63
2023-01-29T08:05:38.070Z,98197.25
2023-01-29T08:08:07.249Z,98199.81
2023-01-29T08:10:37.691Z,98199.16
2023-01-29T08:13:05.619Z,98191.81
2023-01-29T08:15:37.902Z,98210.50
2023-01-29T08:18:05.805Z,98210.03
2023-01-29T08:20:32.497Z,98217.47
2023-01-29T08:23:04.668Z,98207.84
2023-01-29T08:25:32.115Z,98203.13
2023-01-29T08:27:59.441Z,98201.72
2023-01-29T08:30:31.638Z,98189.22
2023-01-29T08:32:58.630Z,98194.78
2023-01-29T08:35:25.865Z,98196.06
2023-01-29T08:37:54.433Z,98196.53
2023-01-29T08:40:21.430Z,98178.75
2023-01-29T08:42:48.094Z,98188.97
2023-01-29T08:45:14.700Z,98183.59
2023-01-29T08:47:50.538Z,98200.19
2023-01-29T08:50:18.233Z,98195.78
2023-01-29T08:52:45.480Z,98201.81
2023-01-29T08:55:16.108Z,98201.34
2023-01-29T08:57:42.926Z,98193.00
2023-01-29T09:00:11.671Z,98178.72
2023-01-29T09:02:38.382Z,98184.31
2023-01-29T09:05:05.578Z,98192.22
2023-01-29T09:07:33.022Z,98179.91
2023-01-29T09:09:59.737Z,98177.44
2023-01-29T09:12:26.333Z,98188.25
2023-01-29T09:14:53.071Z,98183.81
2023-01-29T09:17:24.812Z,98183.59
2023-01-29T09:19:53.212Z,98184.41
2023-01-29T09:22:20.405Z,98165.94
2023-01-29T09:24:47.112Z,98169.44
2023-01-29T09:27:14.724Z,98167.97
2023-01-29T09:29:41.378Z,98164.56
2023-01-29T09:32:07.982Z,98150.25
2023-01-29T09:34:35.064Z,98145.13
2023-01-29T09:37:01.639Z,98139.09
2023-01-29T09:39:28.275Z,98141.41
2023-01-29T09:42:08.262Z,98146.69
2023-01-29T09:44:53.237Z,98155.63
2023-01-29T09:47:28.263Z,98152.84
2023-01-29T09:50:18.429Z,98164.34
2023-01-29T09:52:55.080Z,98158.06
2023-01-29T09:55:32.661Z,98152.84
2023-01-29T09:58:35.311Z,98146.22
2023-01-29T10:01:31.973Z,98157.25
2023-01-29T10:04:21.410Z,98151.56
2023-01-29T10:06:47.927Z,98147.38
2023-01-29T10:09:36.154Z,98146.00
2023-01-29T10:12:20.944Z,98139.13
2023-01-29T10:15:02.696Z,98115.44
2023-01-29T10:17:35.182Z,98116.84
2023-01-29T10:20:27.736Z,98100.94
2023-01-29T10:22:57.051Z,98098.84
2023-01-29T10:25:24.157Z,98093.13
2023-01-29T10:27:57.187Z,98097.28
2023-01-29T10:30:39.666Z,98095.63
2023-01-29T10:33:17.063Z,98082.03
2023-01-29T10:35:50.140Z,98081.03
2023-01-29T10:38:42.999Z,98074.38
2023-01-29T10:41:47.339Z,98066.78
2023-01-29T10:44:31.674Z,98052.47
2023-01-29T10:47:10.300Z,98039.69
2023-01-29T10:50:14.401Z,98032.94
2023-01-29T10:52:59.704Z,98028.53
2023-01-29T10:56:01.276Z,98015.63
2023-01-29T10:58:43.043Z,98007.97
2023-01-29T11:01:10.327Z,98006.56
2023-01-29T11:03:37.590Z,97984.31
2023-01-29T11:06:17.121Z,98006.06
2023-01-29T11:08:52.720Z,97998.84
2023-01-29T11:11:22.436Z,97995.94
2023-01-29T11:14:00.189Z,97969.16
2023-01-29T11:16:30.232Z,97981.06
2023-01-29T11:19:01.674Z,97978.03
2023-01-29T11:21:29.818Z,97972.22
2023-01-29T11:24:07.588Z,97961.41
2023-01-29T11:26:38.657Z,97966.81
2023-01-29T11:29:05.362Z,97957.66
2023-01-29T11:31:39.541Z,97947.59
2023-01-29T11:34:16.810Z,97915.41
2023-01-29T11:36:45.049Z,97954.41
2023-01-29T11:39:19.615Z,97950.69
2023-01-29T11:42:04.723Z,97930.13
2023-01-29T11:44:33.429Z,97939.38
2023-01-29T11:47:14.690Z,97933.34
2023-01-29T11:49:46.763Z,97935.94
2023-01-29T11:52:15.667Z,97945.78
2023-01-29T11:55:02.246Z,97957.44
2023-01-29T11:57:39.548Z,97942.66
2023-01-29T12:00:23.390Z,97940.97
2023-01-29T12:03:12.939Z,97951.56
2023-01-29T12:05:41.477Z,97955.72
2023-01-29T12:08:18.439Z,97941.72
2023-01-29T12:10:45.123Z,97940.66
2023-01-29T12:13:15.858Z,97946.16
2023-01-29T12:15:43.082Z,97948.66
2023-01-29T12:18:32.242Z,97955.16
2023-01-29T12:21:25.336Z,97950.38
2023-01-29T12:24:01.553Z,97942.63
2023-01-29T12:26:35.999Z,97943.81
2023-01-29T12:29:20.988Z,97930.75
2023-01-29T12:32:10.310Z,97938.56
2023-01-29T12:34:46.448Z,97934.00
2023-01-29T12:37:40.596Z,97928.94
2023-01-29T12:40:16.901Z,97919.06
2023-01-29T12:42:48.249Z,97921.59
2023-01-29T12:45:28.313Z,97902.16
2023-01-29T12:48:02.327Z,97909.84
2023-01-29T12:50:34.066Z,97915.06
2023-01-29T12:53:27.783Z,97904.75
2023-01-29T12:56:05.664Z,97908.25
2023-01-29T12:58:35.184Z,97913.66
2023-01-29T13:01:13.144Z,97911.72
2023-01-29T13:04:08.871Z,97910.75
2023-01-29T13:06:50.799Z,97909.19
2023-01-29T13:09:21.666Z,97903.38
2023-01-29T13:12:07.780Z,97910.44
2023-01-29T13:14:58.771Z,97894.06
2023-01-29T13:17:42.953Z,97902.41
2023-01-29T13:20:23.242Z,97883.91
2023-01-29T13:22:54.468Z,97893.25
2023-01-29T13:25:21.173Z,97895.16
2023-01-29T13:27:49.306Z,97892.00
2023-01-29T13:30:31.786Z,97900.28
2023-01-29T13:33:11.445Z,97893.25
2023-01-29T13:35:45.087Z,97888.47
2023-01-29T13:38:45.067Z,97894.28
2023-01-29T13:41:12.409Z,97876.63
2023-01-29T13:43:42.608Z,97887.88
2023-01-29T13:46:12.846Z,97864.47
2023-01-29T13:48:46.845Z,97882.63
2023-01-29T13:51:19.645Z,97890.47
2023-01-29T13:53:58.660Z,97874.38
2023-01-29T13:56:56.212Z,97865.78
2023-01-29T13:59:55.502Z,97856.22
2023-01-29T14:02:27.726Z,97862.53
2023-01-29T14:05:32.198Z,97858.16
2023-01-29T14:08:14.118Z,97854.44
2023-01-29T14:10:43.160Z,97857.34
2023-01-29T14:13:18.149Z,97864.97
2023-01-29T14:16:05.107Z,97860.84
2023-01-29T14:18:34.488Z,97865.28
2023-01-29T14:21:07.073Z,97867.88
2023-01-29T14:23:36.161Z,97862.22
2023-01-29T14:26:06.184Z,97864.16
2023-01-29T14:28:34.995Z,97864.63
2023-01-29T14:31:03.114Z,97836.59
2023-01-29T14:33:42.476Z,97825.50
2023-01-29T14:36:13.695Z,97846.16
2023-01-29T14:38:46.411Z,97848.34
2023-01-29T14:41:29.683Z,97861.31
2023-01-29T14:44:41.268Z,97859.69
2023-01-29T14:47:18.917Z,97850.94
2023-01-29T14:49:57.862Z,97848.34
2023-01-29T14:52:40.530Z,97858.44
2023-01-29T14:55:15.882Z,97843.63
2023-01-29T14:57:43.063Z,97835.75
2023-01-29T15:00:28.520Z,97837.38
2023-01-29T15:03:01.973Z,97847.28
2023-01-29T15:05:35.476Z,97843.47
2023-01-29T15:08:30.279Z,97842.09
2023-01-29T15:11:19.326Z,97846.50
2023-01-29T15:14:07.071Z,97848.06
2023-01-29T15:16:52.724Z,97848.84
2023-01-29T15:19:48.102Z,97796.84
2023-01-29T15:22:19.915Z,97842.00
2023-01-29T15:25:01.518Z,97844.50
2023-01-29T15:27:29.038Z,97842.09
2023-01-29T15:30:01.715Z,97836.31
2023-01-29T15:32:33.163Z,97848.81
2023-01-29T15:35:00.707Z,97833.50
2023-01-29T15:37:32.935Z,97833.25
2023-01-29T15:40:01.160Z,97828.31
2023-01-29T15:42:29.315Z,97843.84
2023-01-29T15:44:56.218Z,97847.69
2023-01-29T15:47:30.894Z,97834.84
2023-01-29T15:49:58.070Z,97831.69
2023-01-29T15:52:35.274Z,97822.06
2023-01-29T15:55:06.257Z,97835.44
2023-01-29T15:57:41.438Z,97835.31
2023-01-29T16:00:20.104Z,97825.97
2023-01-29T16:02:46.813Z,97834.31
2023-01-29T16:05:23.903Z,97823.53
2023-01-29T16:07:51.863Z,97823.38
2023-01-29T16:10:30.702Z,97806.16
2023-01-29T16:12:58.771Z,97824.44
2023-01-29T16:15:38.027Z,97820.50
2023-01-29T16:18:21.368Z,97812.97
2023-01-29T16:20:53.323Z,97810.75
2023-01-29T16:23:31.856Z,97810.53
2023-01-29T16:26:03.523Z,97807.28
2023-01-29T16:28:30.332Z,97811.22
2023-01-29T16:31:01.907Z,97790.75
2023-01-29T16:33:36.480Z,97806.41
2023-01-29T16:36:11.728Z,97806.63
2023-01-29T16:38:43.183Z,97804.41
2023-01-29T16:41:22.104Z,97813.00
2023-01-29T16:43:56.508Z,97813.47
2023-01-29T16:46:36.659Z,97818.81
2023-01-29T16:49:26.061Z,97822.19
2023-01-29T16:51:53.875Z,97824.78
2023-01-29T16:54:27.818Z,97836.00
2023-01-29T16:57:00.213Z,97824.66
2023-01-29T16:59:36.905Z,97819.31
2023-01-29T17:02:04.838Z,97817.69
2023-01-29T17:04:33.030Z,97821.25
2023-01-29T17:07:01.689Z,97811.72
2023-01-29T17:09:34.910Z,97813.09
2023-01-29T17:12:05.664Z,97809.97
2023-01-29T17:14:33.354Z,97808.09
2023-01-29T17:17:14.530Z,97807.03
2023-01-29T17:19:41.064Z,97807.63
2023-01-29T17:22:15.348Z,97798.56
2023-01-29T17:24:42.620Z,97775.16
2023-01-29T17:27:27.068Z,97800.19
2023-01-29T17:29:54.179Z,97806.00
2023-01-29T17:32:20.983Z,97799.94
2023-01-29T17:34:47.652Z,97800.50
2023-01-29T17:37:16.261Z,97805.38
2023-01-29T17:39:44.104Z,97795.28
2023-01-29T17:42:15.281Z,97792.50
2023-01-29T17:44:43.238Z,97799.03
2023-01-29T17:47:13.932Z,97789.41
2023-01-29T17:49:44.309Z,97790.13
2023-01-29T17:52:11.153Z,97794.41
2023-01-29T17:54:37.912Z,97777.81
2023-01-29T17:57:04.579Z,97789.72
2023-01-29T17:59:33.395Z,97777.50
2023-01-29T18:02:00.482Z,97783.28
2023-01-29T18:04:27.602Z,97773.06
2023-01-29T18:06:55.791Z,97781.19
2023-01-29T18:09:22.585Z,97774.38
2023-01-29T18:11:50.513Z,97777.19
2023-01-29T18:14:17.733Z,97784.00
2023-01-29T18:16:45.714Z,97788.97
2023-01-29T18:19:31.208Z,97788.19
2023-01-29T18:21:58.013Z,97767.97
2023-01-29T18:24:26.905Z,97769.03
2023-01-29T18:26:53.578Z,97767.56
2023-01-29T18:29:30.563Z,97764.63
2023-01-29T18:31:57.360Z,97766.44
2023-01-29T18:34:24.048Z,97767.81
2023-01-29T18:36:50.828Z,97764.47
2023-01-29T18:39:17.448Z,97775.16
2023-01-29T18:41:44.218Z,97753.97
2023-01-29T18:44:11.091Z,97749.41
2023-01-29T18:46:37.608Z,97750.72
2023-01-29T18:49:05.287Z,97757.19
2023-01-29T18:51:31.897Z,97758.81
2023-01-29T18:53:58.508Z,97767.44
2023-01-29T18:56:25.087Z,97754.28
2023-01-29T18:58:55.390Z,97750.97
2023-01-29T19:01:23.504Z,97745.84
2023-01-29T19:03:51.500Z,97726.38
2023-01-29T19:06:19.144Z,97740.94
2023-01-29T19:08:47.476Z,97736.75
2023-01-29T19:11:14.676Z,97739.91
2023-01-29T19:13:42.634Z,97731.09
2023-01-29T19:16:11.163Z,97711.47
2023-01-29T19:18:38.986Z,97747.22
2023-01-29T19:21:10.837Z,97748.63
2023-01-29T19:23:38.300Z,97713.53
2023-01-29T19:26:05.753Z,97732.16
2023-01-29T19:28:32.960Z,97711.19
2023-01-29T19:31:00.896Z,97722.75
2023-01-29T19:33:28.284Z,97717.41
2023-01-29T19:35:59.374Z,97729.34
2023-01-29T19:38:26.511Z,97726.56
2023-01-29T19:40:55.107Z,97722.91
2023-01-29T19:43:21.765Z,97723.72
2023-01-29T19:45:50.694Z,97713.19
2023-01-29T19:48:21.380Z,97711.56
2023-01-29T19:50:59.485Z,97728.22
2023-01-29T19:53:28.739Z,97704.25
2023-01-29T19:56:02.966Z,97713.53
2023-01-29T19:58:30.231Z,97706.81
2023-01-29T20:01:15.592Z,97718.13
2023-01-29T20:03:42.499Z,97711.44
2023-01-29T20:06:09.453Z,97706.56
2023-01-29T20:08:37.093Z,97711.78
2023-01-29T20:11:05.872Z,97694.56
2023-01-29T20:13:33.736Z,97706.09
2023-01-29T20:16:05.639Z,97696.00
2023-01-29T20:18:32.627Z,97710.72
2023-01-29T20:21:00.283Z,97703.66
2023-01-29T20:23:37.126Z,97708.19
2023-01-29T20:26:09.758Z,97701.22
2023-01-29T20:28:36.749Z,97677.25
2023-01-29T20:31:05.020Z,97695.22
2023-01-29T20:33:32.399Z,97692.53
2023-01-29T20:36:02.528Z,97705.56
2023-01-29T20:38:31.898Z,97699.66
2023-01-29T20:41:16.122Z,97703.78
2023-01-29T20:43:44.205Z,97700.19
2023-01-29T20:46:11.262Z,97683.97
2023-01-29T20:48:38.178Z,97687.78
2023-01-29T20:51:14.023Z,97686.56
2023-01-29T20:53:43.119Z,97689.66
2023-01-29T20:56:11.288Z,97699.03
2023-01-29T20:58:38.387Z,97691.03
2023-01-29T21:01:16.168Z,97683.03
2023-01-29T21:03:43.455Z,97681.97
2023-01-29T21:06:11.308Z,97686.03
2023-01-29T21:08:38.324Z,97677.81
2023-01-29T21:11:08.268Z,97674.09
2023-01-29T21:13:35.398Z,97673.03
2023-01-29T21:16:02.484Z,97669.31
2023-01-29T21:18:29.591Z,97659.13
2023-01-29T21:20:56.471Z,97658.31
2023-01-29T21:23:23.311Z,97661.38
2023-01-29T21:25:50.012Z,97656.16
2023-01-29T21:28:16.906Z,97650.09
2023-01-29T21:30:43.641Z,97637.66
2023-01-29T21:33:10.503Z,97640.56
2023-01-29T21:35:38.005Z,97627.13
2023-01-29T21:38:05.124Z,97634.91
2023-01-29T21:40:32.017Z,97626.34
2023-01-29T21:43:15.466Z,97630.63
2023-01-29T21:45:43.242Z,97630.84
2023-01-29T21:48:11.467Z,97621.94
2023-01-29T21:50:38.328Z,97624.41
2023-01-29T21:53:05.080Z,97624.47
2023-01-29T21:55:32.646Z,97616.47
2023-01-29T21:58:00.557Z,97619.38
2023-01-29T22:00:28.060Z,97602.22
2023-01-29T22:02:55.928Z,97608.72
2023-01-29T22:05:22.653Z,97614.78
2023-01-29T22:07:50.439Z,97588.38
2023-01-29T22:10:18.845Z,97594.63
2023-01-29T22:12:47.495Z,97598.50
2023-01-29T22:15:14.612Z,97583.88
2023-01-29T22:17:43.960Z,97578.88
2023-01-29T22:20:13.173Z,97581.28
2023-01-29T22:22:40.819Z,97578.47
2023-01-29T22:25:07.896Z,97574.09
2023-01-29T22:27:34.575Z,97551.81
2023-01-29T22:30:01.478Z,97563.75
2023-01-29T22:32:28.320Z,97554.13
2023-01-29T22:34:57.927Z,97544.66
2023-01-29T22:37:24.593Z,97539.66
2023-01-29T22:39:51.250Z,97514.84
2023-01-29T22:42:20.246Z,97544.75
2023-01-29T22:44:48.194Z,97528.97
2023-01-29T22:47:15.090Z,97523.78
2023-01-29T22:49:44.651Z,97529.69
2023-01-29T22:52:11.729Z,97525.19
2023-01-29T22:54:43.575Z,97529.47
2023-01-29T22:57:12.423Z,97526.94
2023-01-29T22:59:42.449Z,97519.50
2023-01-29T23:02:09.642Z,97534.44
2023-01-29T23:04:36.566Z,97523.69
2023-01-29T23:07:03.975Z,97504.88
2023-01-29T23:09:30.616Z,97504.31
2023-01-29T23:11:57.245Z,97483.84
2023-01-29T23:14:23.821Z,97493.22
2023-01-29T23:16:50.485Z,97490.22
2023-01-29T23:19:17.061Z,97485.38
2023-01-29T23:21:43.702Z,97474.31
2023-01-29T23:24:10.682Z,97467.69
2023-01-29T23:26:55.613Z,97473.84
2023-01-29T23:29:22.267Z,97461.53
2023-01-29T23:31:49.011Z,97457.66
2023-01-29T23:34:15.786Z,97447.50
2023-01-29T23:36:43.111Z,97440.34
2023-01-29T23:39:09.939Z,97439.03
2023-01-29T23:41:36.926Z,97435.00
2023-01-29T23:44:04.303Z,97418.44
2023-01-29T23:46:31.081Z,97419.31
2023-01-29T23:48:57.779Z,97418.44
2023-01-29T23:51:24.447Z,97415.47
2023-01-29T23:53:51.058Z,97423.13
2023-01-29T23:56:17.855Z,97421.03
2023-01-29T23:58:44.962Z,97406.34
